createdAt,value
2018-08-31T00:01:57.365Z,85.50
2018-08-31T00:05:42.378Z,85.40
2018-08-31T00:08:22.709Z,85.10
2018-08-31T00:11:02.027Z,85.20
2018-08-31T00:13:31.595Z,85.70
2018-08-31T00:16:01.244Z,86.00
2018-08-31T00:18:30.862Z,86.00
2018-08-31T00:21:00.566Z,86.50
2018-08-31T00:24:40.707Z,86.40
2018-08-31T00:27:21.073Z,86.80
2018-08-31T00:30:01.592Z,87.40
2018-08-31T00:34:48.522Z,87.20
2018-08-31T00:37:27.668Z,87.10
2018-08-31T00:41:09.249Z,86.70
2018-08-31T00:43:49.480Z,86.70
2018-08-31T00:46:19.182Z,86.80
2018-08-31T00:48:48.851Z,87.00
2018-08-31T00:51:18.472Z,87.00
2018-08-31T00:53:48.188Z,86.90
2018-08-31T00:56:17.844Z,86.80
2018-08-31T00:58:47.448Z,86.30
2018-08-31T01:01:17.039Z,86.00
2018-08-31T01:03:46.637Z,85.60
2018-08-31T01:06:16.276Z,85.20
2018-08-31T01:08:45.856Z,85.00
2018-08-31T01:11:15.466Z,84.90
2018-08-31T01:13:45.120Z,84.50
2018-08-31T01:16:14.749Z,84.60
2018-08-31T01:18:44.427Z,84.30
2018-08-31T01:21:14.032Z,84.20
2018-08-31T01:23:43.764Z,84.40
2018-08-31T01:26:13.437Z,84.40
2018-08-31T01:28:42.970Z,84.30
2018-08-31T01:31:12.607Z,84.00
2018-08-31T01:33:42.199Z,84.20
2018-08-31T01:36:11.867Z,84.00
2018-08-31T01:38:41.462Z,84.10
2018-08-31T01:41:11.159Z,84.40
2018-08-31T01:43:40.895Z,84.40
2018-08-31T01:46:10.518Z,84.30
2018-08-31T01:48:40.196Z,84.20
2018-08-31T01:51:14.725Z,84.20
2018-08-31T01:53:44.553Z,84.00
2018-08-31T01:56:14.162Z,84.20
2018-08-31T01:58:43.793Z,83.90
2018-08-31T02:01:13.639Z,84.10
2018-08-31T02:03:43.308Z,83.90
2018-08-31T02:06:12.980Z,83.80
2018-08-31T02:08:47.658Z,83.80
2018-08-31T02:11:17.268Z,83.80
2018-08-31T02:13:46.994Z,83.70
2018-08-31T02:16:16.741Z,83.70
2018-08-31T02:18:46.280Z,83.60
2018-08-31T02:21:15.850Z,83.50
2018-08-31T02:23:45.573Z,83.60
2018-08-31T02:26:15.216Z,83.80
2018-08-31T02:28:44.928Z,83.60
2018-08-31T02:31:14.567Z,83.50
2018-08-31T02:33:44.294Z,83.00
2018-08-31T02:36:14.050Z,83.10
2018-08-31T02:38:43.719Z,83.20
2018-08-31T02:41:13.446Z,83.00
2018-08-31T02:43:43.336Z,83.00
2018-08-31T02:46:12.972Z,83.00
2018-08-31T02:48:42.534Z,82.90
2018-08-31T02:51:12.197Z,83.20
2018-08-31T02:53:42.215Z,82.70
2018-08-31T02:56:12.660Z,82.90
2018-08-31T02:58:42.785Z,82.80
2018-08-31T03:01:12.509Z,82.90
2018-08-31T03:03:42.236Z,83.40
2018-08-31T03:06:11.892Z,83.20
2018-08-31T03:08:41.588Z,83.60
2018-08-31T03:11:12.096Z,83.20
2018-08-31T03:13:43.720Z,83.00
2018-08-31T03:16:13.454Z,83.30
2018-08-31T03:18:43.203Z,83.00
2018-08-31T03:21:14.493Z,83.20
2018-08-31T03:23:45.293Z,83.70
2018-08-31T03:26:15.924Z,82.90
2018-08-31T03:28:46.739Z,83.50
2018-08-31T03:31:18.127Z,83.70
2018-08-31T03:33:47.770Z,83.30
2018-08-31T03:36:17.457Z,83.60
2018-08-31T03:38:47.057Z,83.60
2018-08-31T03:41:16.860Z,83.40
2018-08-31T03:43:47.478Z,83.80
2018-08-31T03:46:17.115Z,83.10
2018-08-31T03:48:47.207Z,83.10
2018-08-31T03:51:16.822Z,83.00
2018-08-31T03:53:47.890Z,82.50
2018-08-31T03:56:17.502Z,82.60
2018-08-31T03:58:47.327Z,82.50
2018-08-31T04:01:16.908Z,82.40
2018-08-31T04:03:46.497Z,83.00
2018-08-31T04:06:16.125Z,83.00
2018-08-31T04:08:45.705Z,83.10
2018-08-31T04:11:15.400Z,82.80
2018-08-31T04:13:45.010Z,83.00
2018-08-31T04:16:14.680Z,82.70
2018-08-31T04:18:44.315Z,82.90
2018-08-31T04:21:13.941Z,83.10
2018-08-31T04:23:43.735Z,82.40
2018-08-31T04:26:13.460Z,83.50
2018-08-31T04:28:43.054Z,82.90
2018-08-31T04:31:12.651Z,82.70
2018-08-31T04:33:42.288Z,83.00
2018-08-31T04:36:12.005Z,83.00
2018-08-31T04:38:41.611Z,82.30
2018-08-31T04:41:11.341Z,82.30
2018-08-31T04:43:40.964Z,82.00
2018-08-31T04:46:10.563Z,82.10
2018-08-31T04:48:40.309Z,82.40
2018-08-31T04:51:09.858Z,82.40
2018-08-31T04:53:39.467Z,82.50
2018-08-31T04:56:09.087Z,82.40
2018-08-31T04:58:38.917Z,82.60
2018-08-31T05:01:08.485Z,82.50
2018-08-31T05:03:38.226Z,82.80
2018-08-31T05:06:07.828Z,82.90
2018-08-31T05:08:37.496Z,82.90
2018-08-31T05:11:07.179Z,82.80
2018-08-31T05:13:36.910Z,83.00
2018-08-31T05:16:06.574Z,82.90
2018-08-31T05:18:36.502Z,82.80
2018-08-31T05:21:06.316Z,83.00
2018-08-31T05:23:35.894Z,83.30
2018-08-31T05:26:05.576Z,83.30
2018-08-31T05:28:35.279Z,83.60
2018-08-31T05:31:04.895Z,83.60
2018-08-31T05:33:34.703Z,83.50
2018-08-31T05:36:04.403Z,83.20
2018-08-31T05:38:34.109Z,83.00
2018-08-31T05:41:03.759Z,82.80
2018-08-31T05:43:33.323Z,82.70
2018-08-31T05:46:02.907Z,82.90
2018-08-31T05:48:32.484Z,83.10
2018-08-31T05:51:02.196Z,83.30
2018-08-31T05:53:31.922Z,83.00
2018-08-31T05:56:01.549Z,83.30
2018-08-31T05:58:31.235Z,83.20
2018-08-31T06:01:00.824Z,82.90
2018-08-31T06:03:30.434Z,83.20
2018-08-31T06:06:00.038Z,83.00
2018-08-31T06:08:29.987Z,83.10
2018-08-31T06:10:59.620Z,83.20
2018-08-31T06:13:29.259Z,82.40
2018-08-31T06:15:58.996Z,82.40
2018-08-31T06:18:28.587Z,83.20
2018-08-31T06:20:58.176Z,82.00
2018-08-31T06:23:27.867Z,82.00
2018-08-31T06:25:57.520Z,82.20
2018-08-31T06:28:27.114Z,82.10
2018-08-31T06:30:56.750Z,82.00
2018-08-31T06:33:26.428Z,82.30
2018-08-31T06:35:56.157Z,82.20
2018-08-31T06:38:26.519Z,82.00
2018-08-31T06:40:56.258Z,82.00
2018-08-31T06:43:25.919Z,82.10
2018-08-31T06:45:56.056Z,81.80
2018-08-31T06:48:25.740Z,82.00
2018-08-31T06:50:55.335Z,81.90
2018-08-31T06:53:24.902Z,81.60
2018-08-31T06:55:54.492Z,81.70
2018-08-31T06:58:24.081Z,81.70
2018-08-31T07:00:53.692Z,81.30
2018-08-31T07:03:23.245Z,81.80
2018-08-31T07:05:52.937Z,81.90
2018-08-31T07:08:22.532Z,81.60
2018-08-31T07:10:52.105Z,81.40
2018-08-31T07:13:21.736Z,81.50
2018-08-31T07:15:51.326Z,82.00
2018-08-31T07:18:21.051Z,81.80
2018-08-31T07:20:50.649Z,80.90
2018-08-31T07:23:20.340Z,81.20
2018-08-31T07:25:50.305Z,81.10
2018-08-31T07:28:20.686Z,81.10
2018-08-31T07:30:50.306Z,80.50
2018-08-31T07:33:19.907Z,80.40
2018-08-31T07:35:50.518Z,80.10
2018-08-31T07:38:20.554Z,80.10
2018-08-31T07:40:53.166Z,80.10
2018-08-31T07:43:23.017Z,80.20
2018-08-31T07:45:52.604Z,80.20
2018-08-31T07:48:22.272Z,79.20
2018-08-31T07:50:51.862Z,79.80
2018-08-31T07:53:21.487Z,79.10
2018-08-31T07:55:51.185Z,79.10
2018-08-31T07:58:20.724Z,78.40
2018-08-31T08:00:50.425Z,77.90
2018-08-31T08:03:20.081Z,78.60
2018-08-31T08:05:49.674Z,78.60
2018-08-31T08:08:19.312Z,78.40
2018-08-31T08:10:48.922Z,78.60
2018-08-31T08:13:18.561Z,78.50
2018-08-31T08:15:48.205Z,78.30
2018-08-31T08:18:17.766Z,78.10
2018-08-31T08:20:47.594Z,78.30
2018-08-31T08:23:17.323Z,77.70
2018-08-31T08:25:47.003Z,78.10
2018-08-31T08:28:16.689Z,77.80
2018-08-31T08:30:46.450Z,77.90
2018-08-31T08:33:16.092Z,77.20
2018-08-31T08:35:45.825Z,77.60
2018-08-31T08:38:16.543Z,77.00
2018-08-31T08:40:46.271Z,77.70
2018-08-31T08:43:15.985Z,77.50
2018-08-31T08:45:46.702Z,77.70
2018-08-31T08:48:16.343Z,77.70
2018-08-31T08:50:45.905Z,77.90
2018-08-31T08:53:15.538Z,77.90
2018-08-31T08:55:45.107Z,78.10
2018-08-31T08:58:14.706Z,77.30
2018-08-31T09:00:44.467Z,77.20
2018-08-31T09:03:14.319Z,77.20
2018-08-31T09:05:44.453Z,77.40
2018-08-31T09:08:14.063Z,76.80
2018-08-31T09:10:43.695Z,77.10
2018-08-31T09:13:13.329Z,76.90
2018-08-31T09:15:43.019Z,76.60
2018-08-31T09:18:12.567Z,76.80
2018-08-31T09:20:45.204Z,77.00
2018-08-31T09:23:14.878Z,77.60
2018-08-31T09:25:44.605Z,77.80
2018-08-31T09:28:22.801Z,78.20
2018-08-31T09:30:53.517Z,78.20
2018-08-31T09:33:23.181Z,78.30
2018-08-31T09:35:52.769Z,78.40
2018-08-31T09:38:22.391Z,78.60
2018-08-31T09:40:52.039Z,78.00
2018-08-31T09:43:21.630Z,78.70
2018-08-31T09:45:51.265Z,78.10
2018-08-31T09:48:20.864Z,78.20
2018-08-31T09:50:50.507Z,77.50
2018-08-31T09:53:20.177Z,77.90
2018-08-31T09:55:49.777Z,77.50
2018-08-31T09:58:19.404Z,77.40
2018-08-31T10:00:54.144Z,77.70
2018-08-31T10:03:25.199Z,77.60
2018-08-31T10:05:56.155Z,78.00
2018-08-31T10:08:27.397Z,77.80
2018-08-31T10:10:57.524Z,77.80
2018-08-31T10:13:27.221Z,77.80
2018-08-31T10:15:56.996Z,77.90
2018-08-31T10:18:26.662Z,77.70
2018-08-31T10:20:56.334Z,77.40
2018-08-31T10:23:25.921Z,78.20
2018-08-31T10:25:55.528Z,77.60
2018-08-31T10:28:25.145Z,77.50
2018-08-31T10:30:54.899Z,78.40
2018-08-31T10:33:24.515Z,77.50
2018-08-31T10:35:54.109Z,76.80
2018-08-31T10:38:23.759Z,77.20
2018-08-31T10:40:53.444Z,77.60
2018-08-31T10:43:23.106Z,77.20
2018-08-31T10:45:52.706Z,77.80
2018-08-31T10:48:22.425Z,77.90
2018-08-31T10:50:51.989Z,77.40
2018-08-31T10:53:21.639Z,76.40
2018-08-31T10:55:51.319Z,76.30
2018-08-31T10:58:21.054Z,77.60
2018-08-31T11:00:51.394Z,77.90
2018-08-31T11:03:21.145Z,77.40
2018-08-31T11:05:50.697Z,76.80
2018-08-31T11:08:20.343Z,80.20
2018-08-31T11:10:49.990Z,80.90
2018-08-31T11:13:19.571Z,80.90
2018-08-31T11:15:49.164Z,80.80
2018-08-31T11:18:18.812Z,82.70
2018-08-31T11:20:48.476Z,83.30
2018-08-31T11:23:18.239Z,82.40
2018-08-31T11:25:47.812Z,81.40
2018-08-31T11:28:17.722Z,81.40
2018-08-31T11:30:47.347Z,80.50
2018-08-31T11:33:17.006Z,80.90
2018-08-31T11:35:46.645Z,80.60
2018-08-31T11:38:16.758Z,81.00
2018-08-31T11:40:46.474Z,80.00
2018-08-31T11:43:16.173Z,81.00
2018-08-31T11:45:45.770Z,80.10
2018-08-31T11:48:15.468Z,80.00
2018-08-31T11:50:45.071Z,79.60
2018-08-31T11:53:14.659Z,79.90
2018-08-31T11:55:44.344Z,78.50
2018-08-31T11:58:13.997Z,78.40
2018-08-31T12:00:43.689Z,79.30
2018-08-31T12:03:13.307Z,79.70
2018-08-31T12:05:43.086Z,76.20
2018-08-31T12:08:12.674Z,76.20
2018-08-31T12:10:42.353Z,78.30
2018-08-31T12:13:11.903Z,79.10
2018-08-31T12:15:41.663Z,79.80
2018-08-31T12:18:11.246Z,78.90
2018-08-31T12:20:40.889Z,79.50
2018-08-31T12:23:10.449Z,78.50
2018-08-31T12:25:40.365Z,78.40
2018-08-31T12:28:12.089Z,79.00
2018-08-31T12:30:41.779Z,80.40
2018-08-31T12:33:11.415Z,80.60
2018-08-31T12:35:41.205Z,80.60
2018-08-31T12:38:11.032Z,81.40
2018-08-31T12:40:40.721Z,80.90
2018-08-31T12:43:10.411Z,81.50
2018-08-31T12:45:40.011Z,80.40
2018-08-31T12:48:09.619Z,81.50
2018-08-31T12:50:39.273Z,80.90
2018-08-31T12:53:08.869Z,81.90
2018-08-31T12:55:38.454Z,80.90
2018-08-31T12:58:08.145Z,81.30
2018-08-31T13:00:38.002Z,80.70
2018-08-31T13:03:07.699Z,80.80
2018-08-31T13:05:37.390Z,81.40
2018-08-31T13:08:07.018Z,81.40
2018-08-31T13:10:36.630Z,80.60
2018-08-31T13:13:06.981Z,81.30
2018-08-31T13:15:36.852Z,80.80
2018-08-31T13:18:06.758Z,81.90
2018-08-31T13:20:36.459Z,81.40
2018-08-31T13:23:06.083Z,80.60
2018-08-31T13:25:35.707Z,81.00
2018-08-31T13:28:05.355Z,81.70
2018-08-31T13:30:35.056Z,80.70
2018-08-31T13:33:04.704Z,81.40
2018-08-31T13:35:34.295Z,80.90
2018-08-31T13:38:04.116Z,81.60
2018-08-31T13:40:33.715Z,80.30
2018-08-31T13:43:03.273Z,80.90
2018-08-31T13:45:33.499Z,81.40
2018-08-31T13:48:03.201Z,80.60
2018-08-31T13:50:32.822Z,80.90
2018-08-31T13:53:02.495Z,81.60
2018-08-31T13:55:32.098Z,80.60
2018-08-31T13:58:01.670Z,81.00
2018-08-31T14:00:31.366Z,80.80
2018-08-31T14:03:00.984Z,80.60
2018-08-31T14:05:30.638Z,80.60
2018-08-31T14:08:00.251Z,81.10
2018-08-31T14:10:29.932Z,81.70
2018-08-31T14:12:59.508Z,81.20
2018-08-31T14:15:29.872Z,81.90
2018-08-31T14:17:59.611Z,81.70
2018-08-31T14:20:29.339Z,81.30
2018-08-31T14:22:58.936Z,81.30
2018-08-31T14:25:28.631Z,81.40
2018-08-31T14:27:58.298Z,82.00
2018-08-31T14:30:27.857Z,81.90
2018-08-31T14:32:57.464Z,82.10
2018-08-31T14:35:27.577Z,82.40
2018-08-31T14:37:57.261Z,82.80
2018-08-31T14:40:27.992Z,81.90
2018-08-31T14:42:57.708Z,81.20
2018-08-31T14:45:27.371Z,81.30
2018-08-31T14:47:57.011Z,81.50
2018-08-31T14:50:26.666Z,81.30
2018-08-31T14:52:56.283Z,81.70
2018-08-31T14:55:25.938Z,81.30
2018-08-31T14:57:55.544Z,81.10
2018-08-31T15:00:25.146Z,81.40
2018-08-31T15:02:54.767Z,81.20
2018-08-31T15:05:24.379Z,81.20
2018-08-31T15:07:54.178Z,81.30
2018-08-31T15:10:23.732Z,81.20
2018-08-31T15:12:53.377Z,81.10
2018-08-31T15:15:24.072Z,81.10
2018-08-31T15:17:53.920Z,82.00
2018-08-31T15:20:23.579Z,81.80
2018-08-31T15:22:53.157Z,81.30
2018-08-31T15:25:22.793Z,81.40
2018-08-31T15:27:52.468Z,81.40
2018-08-31T15:30:22.118Z,81.60
2018-08-31T15:32:51.732Z,81.70
2018-08-31T15:35:21.392Z,82.20
2018-08-31T15:37:51.022Z,81.50
2018-08-31T15:40:20.688Z,81.50
2018-08-31T15:42:50.429Z,82.40
2018-08-31T15:45:20.071Z,81.90
2018-08-31T15:47:49.625Z,82.60
2018-08-31T15:50:19.303Z,82.30
2018-08-31T15:52:48.932Z,82.60
2018-08-31T15:55:18.543Z,82.30
2018-08-31T15:57:48.224Z,82.60
2018-08-31T16:00:17.910Z,82.60
2018-08-31T16:02:47.633Z,82.70
2018-08-31T16:05:17.259Z,83.00
2018-08-31T16:07:46.954Z,82.50
2018-08-31T16:10:16.895Z,82.90
2018-08-31T16:12:46.900Z,83.20
2018-08-31T16:15:17.014Z,83.70
2018-08-31T16:17:47.228Z,85.00
2018-08-31T16:20:16.842Z,86.10
2018-08-31T16:22:46.440Z,85.60
2018-08-31T16:25:16.326Z,86.10
2018-08-31T16:27:46.099Z,86.20
2018-08-31T16:30:47.476Z,85.90
2018-08-31T16:33:37.714Z,85.90
2018-08-31T16:36:07.403Z,86.40
2018-08-31T16:38:37.065Z,86.30
2018-08-31T16:41:06.729Z,86.40
2018-08-31T16:43:36.340Z,86.80
2018-08-31T16:46:06.058Z,87.10
2018-08-31T16:48:35.681Z,86.90
2018-08-31T16:51:05.365Z,87.50
2018-08-31T16:53:34.993Z,87.80
2018-08-31T16:56:04.784Z,88.10
2018-08-31T16:58:34.488Z,88.40
2018-08-31T17:01:04.208Z,89.00
2018-08-31T17:06:37.569Z,89.10
2018-08-31T17:09:10.754Z,89.30
2018-08-31T17:11:40.545Z,90.30
2018-08-31T17:14:10.347Z,90.20
2018-08-31T17:16:40.493Z,90.00
2018-08-31T17:19:10.531Z,90.30
2018-08-31T17:21:40.673Z,90.40
2018-08-31T17:24:10.425Z,91.10
2018-08-31T17:26:45.154Z,90.40
2018-08-31T17:29:20.088Z,87.40
2018-08-31T17:32:58.465Z,86.20
2018-08-31T17:35:33.580Z,82.60
2018-08-31T17:38:03.962Z,79.60
2018-08-31T17:40:33.734Z,83.30
2018-08-31T17:43:03.628Z,87.20
2018-08-31T17:45:33.437Z,89.80
2018-08-31T17:48:03.262Z,90.70
2018-08-31T17:50:33.394Z,91.30
2018-08-31T17:53:03.379Z,91.70
2018-08-31T17:55:33.301Z,92.20
2018-08-31T17:58:03.605Z,92.40
2018-08-31T18:00:33.858Z,92.60
2018-08-31T18:03:03.910Z,92.60
2018-08-31T18:05:34.027Z,92.90
2018-08-31T18:08:04.354Z,93.00
2018-08-31T18:10:37.445Z,93.00
2018-08-31T18:13:07.738Z,92.80
2018-08-31T18:15:38.217Z,93.20
2018-08-31T18:18:08.626Z,93.00
2018-08-31T18:20:39.117Z,93.40
2018-08-31T18:23:09.499Z,93.10
2018-08-31T18:25:40.019Z,93.20
2018-08-31T18:28:10.582Z,93.10
2018-08-31T18:30:41.090Z,93.10
2018-08-31T18:33:11.422Z,93.50
2018-08-31T18:35:42.039Z,93.30
2018-08-31T18:38:13.179Z,93.70
2018-08-31T18:40:43.720Z,93.40
2018-08-31T18:43:14.723Z,93.30
2018-08-31T18:45:45.274Z,93.40
2018-08-31T18:48:15.777Z,93.10
2018-08-31T18:50:46.277Z,93.20
2018-08-31T18:53:16.698Z,93.10
2018-08-31T18:55:47.185Z,93.50
2018-08-31T18:58:17.590Z,94.00
2018-08-31T19:00:48.097Z,94.10
2018-08-31T19:03:18.717Z,93.80
2018-08-31T19:05:50.173Z,94.00
2018-08-31T19:08:20.618Z,94.10
2018-08-31T19:10:51.846Z,93.90
2018-08-31T19:13:22.309Z,93.70
2018-08-31T19:15:52.829Z,94.10
2018-08-31T19:18:23.427Z,94.00
2018-08-31T19:20:54.082Z,94.10
2018-08-31T19:23:24.538Z,94.10
2018-08-31T19:25:55.000Z,94.30
2018-08-31T19:28:26.427Z,94.10
2018-08-31T19:30:57.145Z,94.10
2018-08-31T19:33:27.571Z,94.00
2018-08-31T19:35:58.010Z,94.00
2018-08-31T19:38:28.906Z,94.00
2018-08-31T19:40:59.432Z,94.20
2018-08-31T19:43:30.562Z,94.40
2018-08-31T19:46:01.029Z,94.40
2018-08-31T19:48:31.472Z,94.20
2018-08-31T19:51:01.997Z,94.10
2018-08-31T19:53:32.578Z,94.20
2018-08-31T19:56:03.069Z,94.20
2018-08-31T19:58:33.499Z,94.10
2018-08-31T20:01:04.001Z,94.10
2018-08-31T20:03:34.419Z,94.10
2018-08-31T20:06:05.479Z,93.90
2018-08-31T20:08:35.922Z,93.90
2018-08-31T20:11:06.381Z,94.00
2018-08-31T20:13:36.837Z,94.10
2018-08-31T20:16:07.491Z,94.20
2018-08-31T20:18:38.025Z,94.30
2018-08-31T20:21:08.524Z,94.30
2018-08-31T20:23:38.947Z,94.30
2018-08-31T20:26:09.378Z,94.40
2018-08-31T20:28:39.861Z,94.40
2018-08-31T20:31:10.332Z,94.60
2018-08-31T20:33:40.715Z,94.80
2018-08-31T20:36:11.186Z,94.50
2018-08-31T20:38:41.680Z,94.60
2018-08-31T20:41:12.167Z,94.60
2018-08-31T20:43:43.521Z,94.80
2018-08-31T20:46:14.003Z,94.80
2018-08-31T20:48:44.451Z,94.80
2018-08-31T20:51:14.948Z,94.80
2018-08-31T20:53:46.255Z,94.60
2018-08-31T20:56:16.645Z,94.60
2018-08-31T20:58:47.043Z,94.60
2018-08-31T21:01:17.505Z,94.70
2018-08-31T21:03:48.056Z,94.90
2018-08-31T21:06:18.671Z,95.10
2018-08-31T21:08:49.213Z,94.90
2018-08-31T21:11:19.596Z,95.00
2018-08-31T21:13:50.005Z,95.00
2018-08-31T21:16:20.315Z,94.80
2018-08-31T21:18:50.598Z,94.80
2018-08-31T21:21:20.977Z,94.80
2018-08-31T21:23:51.296Z,94.80
2018-08-31T21:26:21.611Z,94.90
2018-08-31T21:28:52.240Z,94.80
2018-08-31T21:31:22.619Z,94.90
2018-08-31T21:33:52.740Z,95.00
2018-08-31T21:36:22.639Z,94.80
2018-08-31T21:38:52.311Z,94.90
2018-08-31T21:41:22.040Z,94.90
2018-08-31T21:43:51.886Z,94.80
2018-08-31T21:46:21.662Z,94.70
2018-08-31T21:48:51.254Z,94.80
2018-08-31T21:51:20.964Z,94.80
2018-08-31T21:53:50.628Z,94.70
2018-08-31T21:56:20.289Z,94.70
2018-08-31T21:58:50.005Z,94.70
2018-08-31T22:01:24.813Z,94.70
2018-08-31T22:03:54.461Z,94.70
2018-08-31T22:06:24.192Z,94.40
2018-08-31T22:08:53.884Z,94.60
2018-08-31T22:11:23.508Z,94.40
2018-08-31T22:13:53.321Z,94.50
2018-08-31T22:16:22.892Z,94.10
2018-08-31T22:18:52.457Z,94.20
2018-08-31T22:21:22.107Z,93.90
2018-08-31T22:23:51.705Z,93.80
2018-08-31T22:26:21.292Z,93.70
2018-08-31T22:28:50.923Z,94.10
2018-08-31T22:31:20.577Z,94.00
2018-08-31T22:33:50.305Z,94.10
2018-08-31T22:36:19.958Z,94.20
2018-08-31T22:38:49.702Z,94.30
2018-08-31T22:41:19.360Z,94.10
2018-08-31T22:43:52.133Z,94.10
2018-08-31T22:46:23.144Z,94.20
2018-08-31T22:48:53.329Z,94.30
2018-08-31T22:51:23.280Z,94.40
2018-08-31T22:53:52.911Z,94.30
2018-08-31T22:56:22.743Z,94.20
2018-08-31T22:58:52.457Z,94.30
2018-08-31T23:01:22.050Z,94.40
2018-08-31T23:03:51.674Z,94.40
2018-08-31T23:06:21.309Z,94.40
2018-08-31T23:08:50.919Z,94.30
2018-08-31T23:11:20.579Z,94.20
2018-08-31T23:13:50.225Z,94.20
2018-08-31T23:16:19.856Z,94.10
2018-08-31T23:18:49.472Z,94.10
2018-08-31T23:21:19.089Z,94.00
2018-08-31T23:23:49.508Z,94.20
2018-08-31T23:26:19.439Z,94.10
2018-08-31T23:28:48.997Z,93.90
2018-08-31T23:31:18.661Z,94.00
2018-08-31T23:33:48.323Z,93.90
2018-08-31T23:36:17.924Z,94.00
2018-08-31T23:38:47.596Z,93.80
2018-08-31T23:41:17.900Z,93.90
2018-08-31T23:43:47.512Z,93.80
2018-08-31T23:46:17.222Z,93.90
2018-08-31T23:48:46.764Z,94.00
2018-08-31T23:51:16.330Z,93.80
2018-08-31T23:53:45.929Z,93.70
2018-08-31T23:56:15.471Z,93.90
2018-08-31T23:58:45.148Z,93.90
